Golden Princess — ZCDA9 — position and weather

sailwx.info

Track history (hours):
 
Tides and Currents Weather Stations Pressure Air Temp Water Temp Dewpoint Dewpoint Depression Visibility Wind Speed Wind Dir Waves Ship Positions

Golden Princess

Operator: Princess Cruises

Last reported at 2014-Oct-02 15:21 UTC. Time now 2014-Oct-02 16:27 UTC.
Position N 33°45' W 118°17'.

Length 289.6 m; beam 36 m; draft 8.5 m.

Type: Ship. MMSI: 310344000.

Date/timePositionNaut miles runAvg speedWind from/ knotsBaromVisibWave heightAir tempDewpointWater temp
2014-Oct-02 15:21N 33°45' W 118°17'0 0.0
2014-Oct-02 14:27N 33°45' W 118°17'0 0.0
2014-Oct-02 13:11N 33°45' W 118°17'3 4.1
2014-Oct-02 12:33N 33°43' W 118°15'9 9.5
2014-Oct-02 11:33N 33°35' W 118°09'9 8.9
2014-Oct-02 10:33N 33°26' W 118°06'9 9.2
2014-Oct-02 09:33N 33°18' W 118°02'9 8.8
2014-Oct-02 08:33N 33°09' W 117°58'9 8.7
2014-Oct-02 07:33N 33°02' W 117°53'9 9.2
2014-Oct-02 06:33N 32°53' W 117°50'1312.7
2014-Oct-02 05:33N 32°41' W 117°46'1616.2
2014-Oct-02 04:34N 32°26' W 117°37'1716.1
2014-Oct-02 03:30N 32°13' W 117°24'1616.2
2014-Oct-02 02:31N 32°03' W 117°10'0 0.0
2014-Oct-01 12:26N 32°03' W 117°10'1819.3
2014-Oct-01 11:30N 32°15' W 117°27'1919.6
2014-Oct-01 10:33N 32°30' W 117°39'1919.1
2014-Oct-01 09:33N 32°47' W 117°49'1616.3
2014-Oct-01 08:33N 33°02' W 117°56'1616.3
2014-Oct-01 07:33N 33°09' W 118°14'1716.8
2014-Oct-01 06:33N 33°16' W 118°32'2316.7
2014-Oct-01 05:09N 33°34' W 118°50'1017.3
2014-Oct-01 04:33N 33°42' W 118°58'1716.9
2014-Oct-01 03:33N 33°55' W 119°11'1716.9
2014-Oct-01 02:33N 34°06' W 119°27'1717.0
2014-Oct-01 01:33N 34°19' W 119°39'5 4.6
2014-Oct-01 00:33N 34°24' W 119°41'0 0.1
2014-Sep-30 23:32N 34°24' W 119°41'0 0.0
2014-Sep-30 22:32N 34°24' W 119°41'0 0.0
2014-Sep-30 21:31N 34°24' W 119°41'0 0.0
2014-Sep-30 20:31N 34°24' W 119°41'0 0.1
2014-Sep-30 19:33N 34°24' W 119°41'0 0.0
2014-Sep-30 18:33N 34°24' W 119°41'0 0.0
2014-Sep-30 17:32N 34°24' W 119°41'0 0.0
2014-Sep-30 16:32N 34°24' W 119°41'0 0.0
2014-Sep-30 15:31N 34°24' W 119°41'0 0.0
2014-Sep-30 14:31N 34°24' W 119°41'0 0.0
2014-Sep-30 13:31N 34°23' W 119°41'7 7.3
2014-Sep-30 12:33N 34°17' W 119°45'1010.4
2014-Sep-30 11:33N 34°12' W 119°55'1211.5
2014-Sep-30 10:34N 34°15' W 120°09'1313.2
2014-Sep-30 09:34N 34°18' W 120°24'1514.8
2014-Sep-30 08:33N 34°22' W 120°42'1413.7
2014-Sep-30 07:33N 34°24' W 120°58'1616.3
2014-Sep-30 06:34N 34°08' W 121°02'1918.6
2014-Sep-30 05:33N 33°50' W 120°55'1919.4
2014-Sep-30 04:34N 33°36' W 120°39'1919.0
2014-Sep-30 03:34N 33°22' W 120°24'1918.7
2014-Sep-30 02:34N 33°08' W 120°09'3919.1
2014-Sep-30 00:31N 32°46' W 119°31'1819.1
2014-Sep-29 23:33N 32°38' W 119°11'2019.5
2014-Sep-29 22:32N 32°29' W 118°50'1919.4
2014-Sep-29 21:32N 32°23' W 118°28'1919.3
2014-Sep-29 20:32N 32°23' W 118°06'1919.2
2014-Sep-29 19:34N 32°39' W 117°53'1514.7
2014-Sep-29 18:33N 32°53' W 117°52'1514.5
2014-Sep-29 17:33N 33°07' W 117°58'1514.8
2014-Sep-29 16:31N 33°20' W 118°06'1714.7
2014-Sep-29 15:24N 33°36' W 118°14'8 9.9
2014-Sep-29 14:33N 33°44' W 118°17'1 0.9
2014-Sep-29 13:31N 33°45' W 118°17'0 0.0
2014-Sep-29 12:31N 33°45' W 118°17'0 0.0
2014-Sep-29 11:33N 33°45' W 118°17'0 0.0
2014-Sep-29 10:33N 33°45' W 118°17'0 0.0
2014-Sep-29 09:33N 33°45' W 118°17'0 0.0
2014-Sep-29 08:32N 33°45' W 118°17'0 0.0
2014-Sep-29 07:32N 33°45' W 118°17'0 0.0
2014-Sep-29 06:31N 33°45' W 118°17'0 0.0
2014-Sep-29 05:31N 33°45' W 118°17'0 0.0
2014-Sep-29 04:33N 33°45' W 118°17'0 0.0
2014-Sep-29 03:33N 33°45' W 118°17'0 0.0
2014-Sep-29 02:33N 33°45' W 118°17'0 0.0
2014-Sep-29 01:32N 33°45' W 118°17'0 0.0
2014-Sep-29 00:32N 33°45' W 118°17'0 0.0
2014-Sep-28 23:31N 33°45' W 118°17'0 0.0
2014-Sep-28 22:31N 33°45' W 118°17'0 0.0
2014-Sep-28 21:33N 33°45' W 118°17'0 0.0
2014-Sep-28 20:33N 33°45' W 118°17'0 0.0
2014-Sep-28 19:33N 33°45' W 118°17'0 0.0
2014-Sep-28 18:32N 33°45' W 118°17'0 0.0
2014-Sep-28 17:32N 33°45' W 118°17'0 0.0
2014-Sep-28 16:31N 33°45' W 118°17'0 0.0
2014-Sep-28 15:31N 33°45' W 118°17'0 0.0
2014-Sep-28 14:33N 33°45' W 118°17'0 0.0
2014-Sep-28 13:33N 33°45' W 118°17'4 4.3
2014-Sep-28 12:33N 33°41' W 118°14'1110.5
2014-Sep-28 11:33N 33°32' W 118°08'11 9.8
2014-Sep-28 10:25N 33°21' W 118°04'9 9.7
2014-Sep-28 09:32N 33°13' W 117°60'10 9.5
2014-Sep-28 08:28N 33°05' W 117°54'1111.8
2014-Sep-28 07:33N 32°54' W 117°50'1212.1
2014-Sep-28 06:33N 32°43' W 117°46'1212.0
2014-Sep-28 05:33N 32°31' W 117°42'1511.6
2014-Sep-28 04:18N 32°19' W 117°34'4 0.2
2014-Sep-27 08:33N 32°15' W 117°33'1010.3
2014-Sep-27 07:33N 32°24' W 117°38'1010.2
2014-Sep-27 06:34N 32°33' W 117°44'1010.3
2014-Sep-27 05:34N 32°43' W 117°48'1010.3
2014-Sep-27 04:33N 32°53' W 117°51'1010.2
2014-Sep-27 03:33N 33°03' W 117°55'1010.4
2014-Sep-27 02:34N 33°10' W 118°04'1111.0
2014-Sep-27 01:32N 33°18' W 118°13'6 4.8
2014-Sep-27 00:19N 33°21' W 118°19'0 0.0
2014-Sep-26 22:30N 33°21' W 118°19'0 0.0
2014-Sep-26 21:18N 33°21' W 118°19'0 0.1
2014-Sep-26 20:27N 33°21' W 118°19'0 0.1
2014-Sep-26 19:32N 33°21' W 118°19'0 0.0
2014-Sep-26 18:32N 33°21' W 118°19'0 0.0
2014-Sep-26 15:30N 33°21' W 118°19'0 0.0
2014-Sep-26 13:27N 33°21' W 118°19'6 7.1
2014-Sep-26 12:33N 33°20' W 118°11'1515.3
2014-Sep-26 11:33N 33°08' W 118°01'1212.2
2014-Sep-26 10:33N 32°58' W 117°53'9 8.6
2014-Sep-26 09:33N 32°50' W 117°50'9 8.7
2014-Sep-26 08:34N 32°41' W 117°51'8 8.4
2014-Sep-26 07:34N 32°32' W 117°52'9 8.7
2014-Sep-26 06:34N 32°25' W 117°57'9 9.2
2014-Sep-26 05:34N 32°23' W 118°08'8 7.9
2014-Sep-26 04:33N 32°18' W 118°15'9 8.8
2014-Sep-26 03:34N 32°10' W 118°11'9 8.7
2014-Sep-26 02:34N 32°02' W 118°07'8 8.3
2014-Sep-26 01:33N 31°54' W 118°03'8 7.9
2014-Sep-26 00:33N 31°47' W 117°58'8 7.7
2014-Sep-25 23:33N 31°41' W 117°53'8 7.6
2014-Sep-25 22:34N 31°36' W 118°00'9 8.6
2014-Sep-25 21:32N 31°42' W 118°08'9 8.7
2014-Sep-25 20:33N 31°49' W 118°14'7 6.9
2014-Sep-25 19:33N 31°56' W 118°14'8 8.1
2014-Sep-25 18:33N 32°01' W 118°06'8 8.1
2014-Sep-25 17:33N 32°05' W 117°59'8 8.3
2014-Sep-25 16:33N 32°10' W 117°51'8 8.4
2014-Sep-25 15:34N 32°15' W 117°43'8 7.8
2014-Sep-25 14:34N 32°23' W 117°41'8 7.9
2014-Sep-25 13:33N 32°31' W 117°43'8 8.2
2014-Sep-25 12:33N 32°39' W 117°44'9 9.1
2014-Sep-25 11:33N 32°48' W 117°47'9 8.9
2014-Sep-25 10:34N 32°56' W 117°49'1110.5
2014-Sep-25 09:33N 33°05' W 117°56'1514.9
2014-Sep-25 08:33N 33°17' W 118°06'1515.2
2014-Sep-25 07:33N 33°32' W 118°12'1211.6
2014-Sep-25 06:34N 33°43' W 118°16'2 2.1
2014-Sep-25 05:33N 33°45' W 118°17'0 0.0
2014-Sep-25 04:33N 33°45' W 118°17'0 0.0
2014-Sep-25 03:32N 33°45' W 118°17'0 0.0
2014-Sep-25 02:32N 33°45' W 118°17'0 0.0
2014-Sep-25 01:31N 33°45' W 118°17'0 0.0
2014-Sep-25 00:31N 33°45' W 118°17'0 0.0
2014-Sep-24 23:30N 33°45' W 118°17'0 0.0
2014-Sep-24 22:33N 33°45' W 118°17'0 0.0
2014-Sep-24 21:32N 33°45' W 118°17'0 0.0
2014-Sep-24 20:32N 33°45' W 118°17'0 0.0
2014-Sep-24 19:32N 33°45' W 118°17'0 0.0
2014-Sep-24 18:31N 33°45' W 118°17'0 0.0
2014-Sep-24 17:31N 33°45' W 118°17'0 0.0
2014-Sep-24 16:33N 33°45' W 118°17'0 0.0
2014-Sep-24 15:33N 33°45' W 118°17'0 0.0
2014-Sep-24 14:32N 33°45' W 118°17'1 0.7
2014-Sep-24 13:34N 33°44' W 118°17'7 7.3
2014-Sep-24 12:34N 33°37' W 118°17'1413.7
2014-Sep-24 11:33N 33°42' W 118°33'1616.2
2014-Sep-24 10:34N 33°50' W 118°50'2019.9
2014-Sep-24 09:34N 33°59' W 119°10'2019.9
2014-Sep-24 08:34N 34°06' W 119°33'2019.9
2014-Sep-24 07:34N 34°12' W 119°56'2019.8
2014-Sep-24 06:34N 34°17' W 120°19'2919.1
2014-Sep-24 05:03N 34°25' W 120°53'1019.3
2014-Sep-24 04:34N 34°32' W 120°60'2120.6
2014-Sep-24 03:33N 34°49' W 121°15'2121.1
2014-Sep-24 02:34N 35°06' W 121°30'2221.5
2014-Sep-24 01:34N 35°23' W 121°46'2121.1
2014-Sep-24 00:34N 35°40' W 122°02'2121.3
2014-Sep-23 23:34N 35°57' W 122°18'2221.6
2014-Sep-23 22:34N 36°14' W 122°34'2121.4
2014-Sep-23 21:34N 36°32' W 122°49'2121.0
2014-Sep-23 20:34N 36°50' W 123°02'2121.1
2014-Sep-23 19:33N 37°08' W 123°16'2120.7
2014-Sep-23 18:33N 37°26' W 123°29'2020.3
2014-Sep-23 17:33N 37°44' W 123°41'2020.1
2014-Sep-23 16:33N 38°02' W 123°51'2020.1
2014-Sep-23 15:33N 38°21' W 124°01'  
Track history (hours):
 
Tides and Currents Weather Stations Pressure Air Temp Water Temp Dewpoint Dewpoint Depression Visibility Wind Speed Wind Dir Waves Ship Positions

Golden Princess

Operator: Princess Cruises

Last reported at 2014-Oct-02 15:21 UTC. Time now 2014-Oct-02 16:27 UTC.
Position N 33°45' W 118°17'.

Length 289.6 m; beam 36 m; draft 8.5 m.

Type: Ship. MMSI: 310344000.

Date/timePositionNaut miles runAvg speedWind from/ knotsBaromVisibWave heightAir tempDewpointWater temp
2014-Oct-02 15:21N 33°45' W 118°17'0 0.0
2014-Oct-02 14:27N 33°45' W 118°17'0 0.0
2014-Oct-02 13:11N 33°45' W 118°17'3 4.1
2014-Oct-02 12:33N 33°43' W 118°15'9 9.5
2014-Oct-02 11:33N 33°35' W 118°09'9 8.9
2014-Oct-02 10:33N 33°26' W 118°06'9 9.2
2014-Oct-02 09:33N 33°18' W 118°02'9 8.8
2014-Oct-02 08:33N 33°09' W 117°58'9 8.7
2014-Oct-02 07:33N 33°02' W 117°53'9 9.2
2014-Oct-02 06:33N 32°53' W 117°50'1312.7
2014-Oct-02 05:33N 32°41' W 117°46'1616.2
2014-Oct-02 04:34N 32°26' W 117°37'1716.1
2014-Oct-02 03:30N 32°13' W 117°24'1616.2
2014-Oct-02 02:31N 32°03' W 117°10'0 0.0
2014-Oct-01 12:26N 32°03' W 117°10'1819.3
2014-Oct-01 11:30N 32°15' W 117°27'1919.6
2014-Oct-01 10:33N 32°30' W 117°39'1919.1
2014-Oct-01 09:33N 32°47' W 117°49'1616.3
2014-Oct-01 08:33N 33°02' W 117°56'1616.3
2014-Oct-01 07:33N 33°09' W 118°14'1716.8
2014-Oct-01 06:33N 33°16' W 118°32'2316.7
2014-Oct-01 05:09N 33°34' W 118°50'1017.3
2014-Oct-01 04:33N 33°42' W 118°58'1716.9
2014-Oct-01 03:33N 33°55' W 119°11'1716.9
2014-Oct-01 02:33N 34°06' W 119°27'1717.0
2014-Oct-01 01:33N 34°19' W 119°39'5 4.6
2014-Oct-01 00:33N 34°24' W 119°41'0 0.1
2014-Sep-30 23:32N 34°24' W 119°41'0 0.0
2014-Sep-30 22:32N 34°24' W 119°41'0 0.0
2014-Sep-30 21:31N 34°24' W 119°41'0 0.0
2014-Sep-30 20:31N 34°24' W 119°41'0 0.1
2014-Sep-30 19:33N 34°24' W 119°41'0 0.0
2014-Sep-30 18:33N 34°24' W 119°41'0 0.0
2014-Sep-30 17:32N 34°24' W 119°41'0 0.0
2014-Sep-30 16:32N 34°24' W 119°41'0 0.0
2014-Sep-30 15:31N 34°24' W 119°41'0 0.0
2014-Sep-30 14:31N 34°24' W 119°41'0 0.0
2014-Sep-30 13:31N 34°23' W 119°41'7 7.3
2014-Sep-30 12:33N 34°17' W 119°45'1010.4
2014-Sep-30 11:33N 34°12' W 119°55'1211.5
2014-Sep-30 10:34N 34°15' W 120°09'1313.2
2014-Sep-30 09:34N 34°18' W 120°24'1514.8
2014-Sep-30 08:33N 34°22' W 120°42'1413.7
2014-Sep-30 07:33N 34°24' W 120°58'1616.3
2014-Sep-30 06:34N 34°08' W 121°02'1918.6
2014-Sep-30 05:33N 33°50' W 120°55'1919.4
2014-Sep-30 04:34N 33°36' W 120°39'1919.0
2014-Sep-30 03:34N 33°22' W 120°24'1918.7
2014-Sep-30 02:34N 33°08' W 120°09'3919.1
2014-Sep-30 00:31N 32°46' W 119°31'1819.1
2014-Sep-29 23:33N 32°38' W 119°11'2019.5
2014-Sep-29 22:32N 32°29' W 118°50'1919.4
2014-Sep-29 21:32N 32°23' W 118°28'1919.3
2014-Sep-29 20:32N 32°23' W 118°06'1919.2
2014-Sep-29 19:34N 32°39' W 117°53'1514.7
2014-Sep-29 18:33N 32°53' W 117°52'1514.5
2014-Sep-29 17:33N 33°07' W 117°58'1514.8
2014-Sep-29 16:31N 33°20' W 118°06'1714.7
2014-Sep-29 15:24N 33°36' W 118°14'8 9.9
2014-Sep-29 14:33N 33°44' W 118°17'1 0.9
2014-Sep-29 13:31N 33°45' W 118°17'0 0.0
2014-Sep-29 12:31N 33°45' W 118°17'0 0.0
2014-Sep-29 11:33N 33°45' W 118°17'0 0.0
2014-Sep-29 10:33N 33°45' W 118°17'0 0.0
2014-Sep-29 09:33N 33°45' W 118°17'0 0.0
2014-Sep-29 08:32N 33°45' W 118°17'0 0.0
2014-Sep-29 07:32N 33°45' W 118°17'0 0.0
2014-Sep-29 06:31N 33°45' W 118°17'0 0.0
2014-Sep-29 05:31N 33°45' W 118°17'0 0.0
2014-Sep-29 04:33N 33°45' W 118°17'0 0.0
2014-Sep-29 03:33N 33°45' W 118°17'0 0.0
2014-Sep-29 02:33N 33°45' W 118°17'0 0.0
2014-Sep-29 01:32N 33°45' W 118°17'0 0.0
2014-Sep-29 00:32N 33°45' W 118°17'0 0.0
2014-Sep-28 23:31N 33°45' W 118°17'0 0.0
2014-Sep-28 22:31N 33°45' W 118°17'0 0.0
2014-Sep-28 21:33N 33°45' W 118°17'0 0.0
2014-Sep-28 20:33N 33°45' W 118°17'0 0.0
2014-Sep-28 19:33N 33°45' W 118°17'0 0.0
2014-Sep-28 18:32N 33°45' W 118°17'0 0.0
2014-Sep-28 17:32N 33°45' W 118°17'0 0.0
2014-Sep-28 16:31N 33°45' W 118°17'0 0.0
2014-Sep-28 15:31N 33°45' W 118°17'0 0.0
2014-Sep-28 14:33N 33°45' W 118°17'0 0.0
2014-Sep-28 13:33N 33°45' W 118°17'4 4.3
2014-Sep-28 12:33N 33°41' W 118°14'1110.5
2014-Sep-28 11:33N 33°32' W 118°08'11 9.8
2014-Sep-28 10:25N 33°21' W 118°04'9 9.7
2014-Sep-28 09:32N 33°13' W 117°60'10 9.5
2014-Sep-28 08:28N 33°05' W 117°54'1111.8
2014-Sep-28 07:33N 32°54' W 117°50'1212.1
2014-Sep-28 06:33N 32°43' W 117°46'1212.0
2014-Sep-28 05:33N 32°31' W 117°42'1511.6
2014-Sep-28 04:18N 32°19' W 117°34'4 0.2
2014-Sep-27 08:33N 32°15' W 117°33'1010.3
2014-Sep-27 07:33N 32°24' W 117°38'1010.2
2014-Sep-27 06:34N 32°33' W 117°44'1010.3
2014-Sep-27 05:34N 32°43' W 117°48'1010.3
2014-Sep-27 04:33N 32°53' W 117°51'1010.2
2014-Sep-27 03:33N 33°03' W 117°55'1010.4
2014-Sep-27 02:34N 33°10' W 118°04'1111.0
2014-Sep-27 01:32N 33°18' W 118°13'6 4.8
2014-Sep-27 00:19N 33°21' W 118°19'0 0.0
2014-Sep-26 22:30N 33°21' W 118°19'0 0.0
2014-Sep-26 21:18N 33°21' W 118°19'0 0.1
2014-Sep-26 20:27N 33°21' W 118°19'0 0.1
2014-Sep-26 19:32N 33°21' W 118°19'0 0.0
2014-Sep-26 18:32N 33°21' W 118°19'0 0.0
2014-Sep-26 15:30N 33°21' W 118°19'0 0.0
2014-Sep-26 13:27N 33°21' W 118°19'6 7.1
2014-Sep-26 12:33N 33°20' W 118°11'1515.3
2014-Sep-26 11:33N 33°08' W 118°01'1212.2
2014-Sep-26 10:33N 32°58' W 117°53'9 8.6
2014-Sep-26 09:33N 32°50' W 117°50'9 8.7
2014-Sep-26 08:34N 32°41' W 117°51'8 8.4
2014-Sep-26 07:34N 32°32' W 117°52'9 8.7
2014-Sep-26 06:34N 32°25' W 117°57'9 9.2
2014-Sep-26 05:34N 32°23' W 118°08'8 7.9
2014-Sep-26 04:33N 32°18' W 118°15'9 8.8
2014-Sep-26 03:34N 32°10' W 118°11'9 8.7
2014-Sep-26 02:34N 32°02' W 118°07'8 8.3
2014-Sep-26 01:33N 31°54' W 118°03'8 7.9
2014-Sep-26 00:33N 31°47' W 117°58'8 7.7
2014-Sep-25 23:33N 31°41' W 117°53'8 7.6
2014-Sep-25 22:34N 31°36' W 118°00'9 8.6
2014-Sep-25 21:32N 31°42' W 118°08'9 8.7
2014-Sep-25 20:33N 31°49' W 118°14'7 6.9
2014-Sep-25 19:33N 31°56' W 118°14'8 8.1
2014-Sep-25 18:33N 32°01' W 118°06'8 8.1
2014-Sep-25 17:33N 32°05' W 117°59'8 8.3
2014-Sep-25 16:33N 32°10' W 117°51'8 8.4
2014-Sep-25 15:34N 32°15' W 117°43'8 7.8
2014-Sep-25 14:34N 32°23' W 117°41'8 7.9
2014-Sep-25 13:33N 32°31' W 117°43'8 8.2
2014-Sep-25 12:33N 32°39' W 117°44'9 9.1
2014-Sep-25 11:33N 32°48' W 117°47'9 8.9
2014-Sep-25 10:34N 32°56' W 117°49'1110.5
2014-Sep-25 09:33N 33°05' W 117°56'1514.9
2014-Sep-25 08:33N 33°17' W 118°06'1515.2
2014-Sep-25 07:33N 33°32' W 118°12'1211.6
2014-Sep-25 06:34N 33°43' W 118°16'2 2.1
2014-Sep-25 05:33N 33°45' W 118°17'0 0.0
2014-Sep-25 04:33N 33°45' W 118°17'0 0.0
2014-Sep-25 03:32N 33°45' W 118°17'0 0.0
2014-Sep-25 02:32N 33°45' W 118°17'0 0.0
2014-Sep-25 01:31N 33°45' W 118°17'0 0.0
2014-Sep-25 00:31N 33°45' W 118°17'0 0.0
2014-Sep-24 23:30N 33°45' W 118°17'0 0.0
2014-Sep-24 22:33N 33°45' W 118°17'0 0.0
2014-Sep-24 21:32N 33°45' W 118°17'0 0.0
2014-Sep-24 20:32N 33°45' W 118°17'0 0.0
2014-Sep-24 19:32N 33°45' W 118°17'0 0.0
2014-Sep-24 18:31N 33°45' W 118°17'0 0.0
2014-Sep-24 17:31N 33°45' W 118°17'0 0.0
2014-Sep-24 16:33N 33°45' W 118°17'0 0.0
2014-Sep-24 15:33N 33°45' W 118°17'0 0.0
2014-Sep-24 14:32N 33°45' W 118°17'1 0.7
2014-Sep-24 13:34N 33°44' W 118°17'7 7.3
2014-Sep-24 12:34N 33°37' W 118°17'1413.7
2014-Sep-24 11:33N 33°42' W 118°33'1616.2
2014-Sep-24 10:34N 33°50' W 118°50'2019.9
2014-Sep-24 09:34N 33°59' W 119°10'2019.9
2014-Sep-24 08:34N 34°06' W 119°33'2019.9
2014-Sep-24 07:34N 34°12' W 119°56'2019.8
2014-Sep-24 06:34N 34°17' W 120°19'2919.1
2014-Sep-24 05:03N 34°25' W 120°53'1019.3
2014-Sep-24 04:34N 34°32' W 120°60'2120.6
2014-Sep-24 03:33N 34°49' W 121°15'2121.1
2014-Sep-24 02:34N 35°06' W 121°30'2221.5
2014-Sep-24 01:34N 35°23' W 121°46'2121.1
2014-Sep-24 00:34N 35°40' W 122°02'2121.3
2014-Sep-23 23:34N 35°57' W 122°18'2221.6
2014-Sep-23 22:34N 36°14' W 122°34'2121.4
2014-Sep-23 21:34N 36°32' W 122°49'2121.0
2014-Sep-23 20:34N 36°50' W 123°02'2121.1
2014-Sep-23 19:33N 37°08' W 123°16'2120.7
2014-Sep-23 18:33N 37°26' W 123°29'2020.3
2014-Sep-23 17:33N 37°44' W 123°41'2020.1
2014-Sep-23 16:33N 38°02' W 123°51'2020.1
2014-Sep-23 15:33N 38°21' W 124°01'  

Dump ship's entire track history